createdAt,value
2022-10-09T00:01:12.590Z,10.60
2022-10-09T00:06:18.074Z,10.92
2022-10-09T00:11:26.274Z,10.89
2022-10-09T00:16:28.754Z,10.74
2022-10-09T00:21:34.443Z,10.63
2022-10-09T00:26:36.915Z,10.41
2022-10-09T00:37:10.705Z,10.37
2022-10-09T00:42:13.798Z,10.21
2022-10-09T00:47:42.093Z,10.15
2022-10-09T00:52:44.962Z,10.31
2022-10-09T00:57:47.768Z,10.17
2022-10-09T01:02:50.244Z,10.16
2022-10-09T01:07:58.879Z,10.24
2022-10-09T01:13:20.119Z,10.32
2022-10-09T01:18:25.007Z,10.64
2022-10-09T01:23:51.587Z,10.56
2022-10-09T01:28:56.644Z,10.26
2022-10-09T01:34:00.095Z,10.18
2022-10-09T01:39:04.476Z,10.13
2022-10-09T01:44:32.343Z,10.23
2022-10-09T01:49:55.215Z,10.68
2022-10-09T01:55:22.183Z,10.46
2022-10-09T02:00:24.995Z,10.50
2022-10-09T02:05:29.381Z,10.44
2022-10-09T02:10:33.300Z,10.64
2022-10-09T02:15:39.693Z,10.52
2022-10-09T02:20:51.781Z,10.45
2022-10-09T02:25:54.379Z,10.36
2022-10-09T02:31:04.678Z,10.33
2022-10-09T02:36:07.123Z,10.06
2022-10-09T02:41:09.698Z,10.22
2022-10-09T02:46:12.098Z,9.83
2022-10-09T02:51:14.614Z,9.88
2022-10-09T02:56:16.954Z,9.85
2022-10-09T03:01:19.783Z,9.65
2022-10-09T03:06:24.389Z,9.73
2022-10-09T03:11:27.240Z,9.92
2022-10-09T03:16:29.741Z,9.71
2022-10-09T03:21:32.098Z,9.96
2022-10-09T03:26:34.558Z,9.78
2022-10-09T03:31:51.994Z,9.61
2022-10-09T03:36:55.300Z,9.66
2022-10-09T03:41:57.622Z,9.37
2022-10-09T03:47:00.096Z,9.57
2022-10-09T03:52:02.518Z,9.58
2022-10-09T03:57:04.898Z,9.65
2022-10-09T04:02:07.279Z,9.75
2022-10-09T04:07:09.633Z,9.49
2022-10-09T04:12:11.962Z,9.64
2022-10-09T04:17:14.297Z,9.49
2022-10-09T04:22:16.627Z,9.38
2022-10-09T04:27:19.027Z,9.39
2022-10-09T04:32:21.458Z,9.41
2022-10-09T04:37:23.795Z,9.38
2022-10-09T04:42:26.167Z,9.73
2022-10-09T04:47:28.556Z,9.68
2022-10-09T04:52:30.889Z,9.89
2022-10-09T04:57:33.217Z,10.22
2022-10-09T05:02:35.689Z,10.19
2022-10-09T05:07:38.683Z,10.03
2022-10-09T05:12:41.031Z,10.10
2022-10-09T05:17:43.436Z,9.85
2022-10-09T05:22:47.277Z,9.68
2022-10-09T05:27:49.777Z,9.76
2022-10-09T05:32:52.307Z,9.70
2022-10-09T05:37:54.815Z,9.70
2022-10-09T05:42:57.240Z,9.80
2022-10-09T05:47:59.761Z,9.80
2022-10-09T05:53:02.366Z,10.19
2022-10-09T05:58:04.961Z,10.19
2022-10-09T06:03:07.414Z,10.35
2022-10-09T06:08:09.767Z,10.40
2022-10-09T06:13:12.096Z,10.82
2022-10-09T06:18:14.563Z,10.58
2022-10-09T06:23:16.907Z,10.68
2022-10-09T06:28:19.530Z,10.86
2022-10-09T06:33:21.994Z,11.07
2022-10-09T06:38:24.697Z,11.09
2022-10-09T06:43:27.097Z,11.19
2022-10-09T06:48:31.270Z,11.62
2022-10-09T06:53:38.099Z,11.51
2022-10-09T06:58:41.181Z,12.02
2022-10-09T07:03:45.595Z,11.93
2022-10-09T07:08:55.227Z,11.61
2022-10-09T07:13:59.902Z,12.10
2022-10-09T07:19:03.991Z,12.14
2022-10-09T07:24:07.019Z,11.97
2022-10-09T07:29:11.095Z,12.36
2022-10-09T07:34:13.703Z,12.34
2022-10-09T07:39:19.311Z,12.51
2022-10-09T07:44:21.669Z,12.53
2022-10-09T07:49:24.054Z,12.68
2022-10-09T07:54:26.755Z,12.53
2022-10-09T07:59:29.128Z,12.80
2022-10-09T08:04:31.514Z,12.93
2022-10-09T08:09:33.912Z,12.77
2022-10-09T08:14:36.273Z,13.29
2022-10-09T08:19:38.653Z,13.16
2022-10-09T08:24:41.036Z,13.35
2022-10-09T08:29:43.431Z,13.04
2022-10-09T08:34:47.138Z,13.10
2022-10-09T08:39:49.561Z,13.18
2022-10-09T08:44:52.015Z,13.47
2022-10-09T08:49:59.744Z,13.57
2022-10-09T08:55:09.112Z,13.49
2022-10-09T09:00:19.832Z,13.55
2022-10-09T09:05:25.014Z,13.74
2022-10-09T09:10:43.725Z,13.55
2022-10-09T09:16:01.425Z,13.59
2022-10-09T09:21:17.632Z,13.94
2022-10-09T09:26:21.547Z,14.27
2022-10-09T09:31:26.914Z,14.36
2022-10-09T09:36:34.345Z,14.53
2022-10-09T09:41:36.753Z,14.61
2022-10-09T09:46:39.991Z,14.53
2022-10-09T09:51:42.318Z,14.94
2022-10-09T09:57:10.861Z,15.41
2022-10-09T10:02:15.769Z,15.00
2022-10-09T10:07:30.283Z,15.01
2022-10-09T10:12:32.758Z,15.26
2022-10-09T10:17:36.081Z,15.16
2022-10-09T10:22:38.503Z,15.05
2022-10-09T10:27:42.673Z,15.11
2022-10-09T10:33:04.302Z,15.31
2022-10-09T10:38:20.602Z,15.05
2022-10-09T10:43:45.849Z,14.99
2022-10-09T10:48:48.700Z,15.37
2022-10-09T10:54:06.393Z,15.10
2022-10-09T10:59:08.667Z,15.11
2022-10-09T11:04:26.173Z,15.83
2022-10-09T11:10:23.489Z,15.38
2022-10-09T11:15:30.997Z,15.22
2022-10-09T11:20:45.822Z,16.06
2022-10-09T11:25:56.879Z,15.88
2022-10-09T11:31:12.957Z,16.39
2022-10-09T11:36:27.282Z,17.00
2022-10-09T11:41:30.697Z,17.00
2022-10-09T11:46:54.616Z,17.15
2022-10-09T11:52:29.418Z,17.38
2022-10-09T11:57:33.658Z,17.32
2022-10-09T12:02:37.296Z,18.12
2022-10-09T12:07:40.091Z,18.60
2022-10-09T12:12:42.888Z,17.54
2022-10-09T12:17:50.145Z,17.05
2022-10-09T12:23:24.675Z,16.66
2022-10-09T12:28:28.071Z,17.18
2022-10-09T12:33:44.588Z,17.82
2022-10-09T12:38:47.013Z,17.24
2022-10-09T12:43:53.998Z,16.95
2022-10-09T12:48:56.479Z,16.98
2022-10-09T12:53:58.894Z,16.26
2022-10-09T12:59:02.379Z,16.69
2022-10-09T13:04:06.426Z,17.23
2022-10-09T13:09:09.855Z,17.45
2022-10-09T13:14:53.714Z,17.91
2022-10-09T13:19:58.683Z,18.38
2022-10-09T13:25:01.167Z,18.47
2022-10-09T13:30:03.903Z,18.94
2022-10-09T13:35:06.423Z,19.12
2022-10-09T13:40:15.553Z,19.20
2022-10-09T13:45:18.024Z,19.57
2022-10-09T13:50:20.511Z,19.29
2022-10-09T13:55:22.829Z,19.40
2022-10-09T14:00:25.599Z,19.27
2022-10-09T14:05:27.982Z,19.11
2022-10-09T14:10:30.387Z,18.96
2022-10-09T14:15:32.696Z,18.41
2022-10-09T14:20:35.620Z,18.77
2022-10-09T14:25:38.131Z,18.01
2022-10-09T14:30:42.005Z,17.39
2022-10-09T14:35:44.420Z,17.55
2022-10-09T14:40:46.947Z,17.59
2022-10-09T14:45:49.347Z,17.54
2022-10-09T14:50:51.655Z,17.21
2022-10-09T14:55:54.091Z,16.35
2022-10-09T15:00:56.680Z,16.57
2022-10-09T15:06:00.615Z,16.30
2022-10-09T15:11:03.730Z,16.31
2022-10-09T15:16:14.692Z,16.12
2022-10-09T15:21:22.946Z,16.01
2022-10-09T15:26:26.522Z,15.94
2022-10-09T15:31:31.328Z,15.88
2022-10-09T15:36:39.754Z,15.55
2022-10-09T15:41:43.529Z,15.35
2022-10-09T15:46:46.822Z,15.04
2022-10-09T15:51:49.279Z,14.55
2022-10-09T15:56:51.744Z,14.25
2022-10-09T16:01:54.171Z,13.81
2022-10-09T16:06:58.179Z,13.60
2022-10-09T16:12:00.980Z,13.29
2022-10-09T16:17:04.695Z,13.15
2022-10-09T16:22:08.961Z,12.95
2022-10-09T16:27:11.370Z,12.72
2022-10-09T16:32:13.781Z,12.46
2022-10-09T16:37:16.410Z,12.29
2022-10-09T16:42:18.790Z,12.21
2022-10-09T16:47:21.191Z,11.98
2022-10-09T16:52:23.554Z,11.98
2022-10-09T16:57:25.914Z,11.81
2022-10-09T17:02:28.849Z,11.54
2022-10-09T17:07:31.266Z,11.46
2022-10-09T17:12:33.578Z,11.38
2022-10-09T17:17:36.037Z,11.36
2022-10-09T17:22:38.391Z,11.39
2022-10-09T17:27:40.814Z,11.27
2022-10-09T17:32:43.154Z,11.13
2022-10-09T17:37:45.559Z,11.08
2022-10-09T17:42:48.234Z,10.90
2022-10-09T17:47:51.362Z,10.96
2022-10-09T17:52:55.008Z,10.89
2022-10-09T17:57:57.911Z,10.72
2022-10-09T18:03:00.297Z,10.61
2022-10-09T18:08:02.763Z,10.59
2022-10-09T18:13:06.578Z,10.52
2022-10-09T18:18:09.896Z,10.47
2022-10-09T18:23:12.275Z,10.39
2022-10-09T18:28:15.396Z,10.32
2022-10-09T18:33:17.830Z,10.32
2022-10-09T18:38:20.168Z,10.28
2022-10-09T18:43:22.549Z,10.17
2022-10-09T18:48:25.169Z,10.18
2022-10-09T18:53:27.809Z,10.19
2022-10-09T18:58:30.234Z,10.08
2022-10-09T19:03:32.630Z,9.96
2022-10-09T19:08:35.603Z,10.01
2022-10-09T19:13:38.179Z,9.98
2022-10-09T19:18:40.734Z,9.97
2022-10-09T19:23:44.037Z,10.01
2022-10-09T19:28:46.677Z,9.94
2022-10-09T19:33:49.044Z,9.88
2022-10-09T19:38:51.402Z,9.77
2022-10-09T19:43:53.965Z,9.67
2022-10-09T19:48:56.469Z,9.62
2022-10-09T19:53:59.206Z,9.63
2022-10-09T19:59:03.112Z,9.71
2022-10-09T20:04:08.255Z,9.74
2022-10-09T20:09:12.404Z,9.78
2022-10-09T20:14:14.753Z,9.84
2022-10-09T20:19:18.322Z,9.73
2022-10-09T20:24:20.642Z,9.63
2022-10-09T20:29:23.073Z,9.56
2022-10-09T20:34:27.094Z,9.49
2022-10-09T20:39:29.486Z,9.45
2022-10-09T20:44:31.833Z,9.39
2022-10-09T20:49:34.608Z,9.44
2022-10-09T20:54:37.009Z,9.35
2022-10-09T20:59:39.443Z,9.24
2022-10-09T21:04:41.847Z,9.24
2022-10-09T21:09:44.358Z,9.18
2022-10-09T21:14:46.777Z,9.19
2022-10-09T21:20:00.582Z,9.24
2022-10-09T21:25:02.958Z,9.22
2022-10-09T21:30:05.806Z,9.31
2022-10-09T21:35:08.403Z,9.38
2022-10-09T21:40:10.946Z,9.42
2022-10-09T21:45:13.609Z,9.38
2022-10-09T21:50:15.970Z,9.33
2022-10-09T21:55:18.393Z,9.34
2022-10-09T22:00:21.293Z,9.36
2022-10-09T22:05:23.655Z,9.39
2022-10-09T22:10:26.023Z,9.46
2022-10-09T22:15:28.403Z,9.56
2022-10-09T22:20:30.758Z,9.62
2022-10-09T22:25:34.049Z,9.55
2022-10-09T22:30:36.697Z,9.39
2022-10-09T22:35:39.045Z,9.22
2022-10-09T22:40:46.385Z,9.15
2022-10-09T22:45:49.526Z,8.90
2022-10-09T22:50:51.934Z,8.82
2022-10-09T22:55:54.371Z,8.73
2022-10-09T23:00:56.775Z,8.66
2022-10-09T23:06:13.503Z,8.63
2022-10-09T23:11:17.023Z,8.50
2022-10-09T23:16:19.416Z,8.60
2022-10-09T23:21:23.504Z,8.56
2022-10-09T23:26:28.809Z,8.53
2022-10-09T23:31:31.447Z,8.51
2022-10-09T23:36:34.303Z,8.45
2022-10-09T23:41:36.683Z,8.35
2022-10-09T23:46:39.955Z,8.39
2022-10-09T23:51:42.297Z,8.34
2022-10-09T23:56:44.699Z,8.36
